KPZQ METAR Reports


Rogers City, Presque Isle County Airport, MI, United States (KPZQ) 45-24-25N 083-48-46W
Oct 21, 2018 - 10:15 PM EDT / 2018.10.22 0215 UTC
Wind: from the S (170 degrees) at 3 MPH (3 KT):0
Visibility: 10 mile(s):0
Sky conditions: overcast
Temperature: 35.6 F (2.0 C)
Dew Point: 29.8 F (-1.2 C)
Relative Humidity: 79%
Pressure (altimeter): 30.09 in. Hg (1018 hPa)
ob: KPZQ 220215Z AUTO 17003KT 10SM BKN039 OVC090 02/M01 A3009 RMK AO2 T00201012
cycle: 2

 

Rogers City METAR Meteogram

Weather Chart

Nearby METAR Reports

KPZQ - Rogers City, Michigan, USA
Distance from station: SSW 1mi, 2km
Updated: Sun, 21-Oct-2018 10:15pm EDT
Overcast
Overcast
 Wind from S
Wind: S 3 mph , 6 km/h
Temperature: 36°F , 2°C
Dew Point: 30°F , -1°C
Humidity: 81%
Barometer: 30.09 inHg , 1019 hPa
Clouds: Overcast
Visibility: 10 miles , 16 km
Cloud details: Mostly cloudy 3900 ft
Overcast 9000 ft
2018/10/22 02:15 KPZQ 220215Z AUTO 17003KT 10SM BKN039 OVC090 02/M01 A3009 RMK AO2 T00201012
KAPN - Alpena, Michigan, USA
Distance from station: SSE 27mi, 43km
Updated: Sun, 21-Oct-2018 9:54pm EDT
NOT Current
Overcast
Overcast
 Wind from S
Wind: S 3 mph , 6 km/h
Temperature: 36°F , 2°C
Dew Point: 28°F , -2°C
Humidity: 75%
Barometer: 30.09 inHg , 1019 hPa
Clouds: Overcast
Visibility: 10 miles , 16 km
Cloud details: Few Clouds 8500 ft
Overcast 10000 ft
2018/10/22 01:54 KAPN 220154Z AUTO 18003KT 10SM FEW085 OVC100 02/M02 A3009 RMK AO2 SLP197 T00221017
 
KSLH - Cheboygan, Michigan, USA
Distance from station: WNW 38mi, 61km
Updated: Sun, 21-Oct-2018 10:15pm EDT
Overcast
Overcast
 Wind from S
Wind: S 5 mph , 7 km/h
Temperature: 37°F , 3°C
Wind Chill: 33°F , 1°C
Dew Point: 30°F , -1°C
Humidity: 75%
Barometer: 30.04 inHg , 1017.3 hPa
Clouds: Overcast
Visibility: 10 miles , 16 km
Cloud details: Mostly cloudy 4500 ft
Overcast 10000 ft
2018/10/22 02:15 KSLH 220215Z AUTO 17004KT 10SM BKN045 OVC100 03/M01 A3004 RMK AO2 T00271011
KDRM - Drummond Is, Michigan, USA
Distance from station: N 40mi, 65km
Updated: Sun, 21-Oct-2018 10:15pm EDT
Overcast
Overcast
 Wind from SSW
Wind: SSW 5 mph , 7 km/h
Temperature: 37°F , 3°C
Wind Chill: 33°F , 1°C
Dew Point: 32°F , 0°C
Humidity: 81%
Barometer: 30.04 inHg , 1017.3 hPa
Clouds: Overcast
Visibility: 10 miles , 16 km
Cloud details: Partly cloudy 2900 ft
Mostly cloudy 3600 ft
Overcast 4700 ft
2018/10/22 02:15 KDRM 220215Z AUTO 21004KT 10SM SCT029 BKN036 OVC047 03/00 A3004 RMK AO2 T00330000
 
KPLN - Pellston, Michigan, USA
Distance from station: WNW 49mi, 79km
Updated: Sun, 21-Oct-2018 9:54pm EDT
NOT Current
Overcast
Overcast
 Wind from S
Wind: S 6 mph , 9 km/h
Temperature: 37°F , 3°C
Wind Chill: 32°F , 0°C
Dew Point: 30°F , -1°C
Humidity: 75%
Barometer: 30.05 inHg , 1017.6 hPa
Clouds: Overcast
Visibility: 10 miles , 16 km
Cloud details: Mostly cloudy 4000 ft
Overcast 9500 ft
2018/10/22 01:54 KPLN 220154Z AUTO 17005KT 10SM BKN040 OVC095 03/M01 A3005 RMK AO2 SLP184 T00331011
KMCD - Mackinac Island, Michigan, USA
Distance from station: NW 50mi, 80km
Updated: Sun, 21-Oct-2018 10:15pm EDT
Overcast
Overcast
 Wind from SSW
Wind: SSW 8 mph , 13 km/h
Temperature: 39°F , 4°C
Wind Chill: 33°F , 1°C
Dew Point: 27°F , -3°C
Humidity: 61%
Barometer: 30.03 inHg , 1016.9 hPa
Clouds: Overcast
Visibility: 10 miles , 16 km
Cloud details: Partly cloudy 2600 ft
Mostly cloudy 3400 ft
Overcast 4000 ft
2018/10/22 02:15 KMCD 220215Z AUTO 21007KT 10SM SCT026 BKN034 OVC040 04/M03 A3003 RMK AO2 T00421026